RAMO2: Caney River, Ramona, OK

Data processed at Wed May 22 2019 23:50


All information presented herein is the property of the government of the United States of America and may be revised or deleted at any time without prior notice.
Dissemination of this information without the expressed written consent of the Public Affairs Office, Tulsa District U.S. Army Corps of Engineers is strictly prohibited.
These data are gathered electronically and, as presented, have not undergone any form of quality control. These data are not guaranteed to be valid or correct.
Go to home page.
Go to station list.
Go to home page.

Upstream stations:

Downstream station:
Previous Day
Next Day
Current Day
    
SHEF ID:       RAMO2     Caney River near Ramona, OK
STATION TYPE:  
Regulating: Stage =    26.00, Flow =    15250

               PRECIP     STAGE  STAGE(2)  RIV-FLOW   VOLTAGE  BAT-LOAD
                   in        ft        ft       cfs      volt      volt
              Ccp-Rev   Ccp-Rev   Ccp-Rev   Ccp-Rev   Ccp-Rev   Ccp-Rev
(US/Central)
05/22 00:00      0.00     28.81     20.61     33565     12.60      ----
05/22 01:00      0.00     28.82     20.77     33921     12.60      ----
05/22 02:00      0.00     28.92     20.92     37694     12.60      ----
05/22 03:00      0.00     28.94     21.01     38496     12.60      ----
05/22 04:00      0.00     29.00     20.96     41000     12.60      ----
05/22 05:00      0.00     29.00     20.85     41000     12.50      ----
05/22 06:00      0.00     29.00     20.87     41000     12.50      ----
05/22 07:00      0.00     29.05     20.95     42311     12.50      ----
05/22 08:00      0.00     29.10     21.42     43662     12.60      ----
05/22 09:00      0.00     29.11     22.06     43936     12.70      ----
05/22 10:00      0.00     29.11     22.17     43936     12.70      ----
05/22 11:00      0.00     29.18     22.58     45907     12.90      ----
05/22 12:00      0.00     29.19     23.12     46195     13.10      ----
05/22 13:00      0.00     29.17     23.99     45620     13.40      ----
05/22 14:00      0.00     29.20     23.99     46485     13.60      ----
05/22 15:00      0.00     29.19     24.21     46195     13.60      ----
05/22 16:00      0.00     29.17     24.50     45620     13.60      ----
05/22 17:00      0.00     29.19     24.52     46195     13.50      ----
05/22 18:00      0.05     29.18     24.15     45907     13.30      ----
05/22 19:00      0.63     29.19     23.72     46195     12.70      ----
05/22 20:00      0.01     29.16     23.80     45336     12.70      ----
05/22 21:00      0.00     29.17     23.74     45620     12.60      ----
05/22 22:00      0.12     29.15     23.90     45052     12.60      ----
05/22 23:00      1.73     29.24     23.96     47661     12.60      ----